Time;durP1;ratioP1;P1;durP2;ratioP2;P2;SDS_P1;SDS_P2;PMS_P1;PMS_P2;Temp;Humidity;BMP_temperature;BMP_pressure;BME280_temperature;BME280_humidity;BME280_pressure;Samples;Min_cycle;Max_cycle;Signal;HPM_P1;HPM_P2
2024/01/23 00:00:34;;;;;;;8.87;2.50;;;6.70;99.90;;;;;;5078065;28;20762;-53
2024/01/23 00:03:00;;;;;;;5.77;2.23;;;6.70;99.90;;;;;;5061573;28;20293;-53
2024/01/23 00:05:25;;;;;;;11.30;2.70;;;6.80;99.90;;;;;;5075015;28;20239;-52
2024/01/23 00:07:51;;;;;;;8.40;2.60;;;6.90;99.90;;;;;;5076814;28;20201;-53
2024/01/23 00:10:19;;;;;;;5.50;3.40;;;6.90;99.90;;;;;;5073018;28;20209;-55
2024/01/23 00:12:45;;;;;;;11.10;3.03;;;6.90;99.90;;;;;;5072845;28;20282;-56
2024/01/23 00:15:10;;;;;;;10.93;2.67;;;6.90;99.90;;;;;;5077143;28;20657;-53
2024/01/23 00:17:36;;;;;;;8.13;2.70;;;7.00;99.90;;;;;;5063907;28;20669;-53
2024/01/23 00:20:04;;;;;;;4.63;2.33;;;7.10;99.90;;;;;;5074715;28;20205;-53
2024/01/23 00:22:29;;;;;;;7.17;2.97;;;7.00;99.90;;;;;;5080156;28;20188;-54
2024/01/23 00:24:55;;;;;;;3.67;2.20;;;7.00;99.90;;;;;;5077539;28;20385;-52
2024/01/23 00:27:20;;;;;;;4.60;1.87;;;7.00;99.90;;;;;;5076789;28;20197;-52
2024/01/23 00:29:46;;;;;;;6.97;2.13;;;7.00;99.90;;;;;;5062333;28;20305;-52
2024/01/23 00:32:11;;;;;;;5.53;2.30;;;7.10;99.90;;;;;;5076855;28;20251;-52
2024/01/23 00:34:37;;;;;;;6.07;2.73;;;7.10;99.90;;;;;;5080896;28;20239;-53
2024/01/23 00:37:03;;;;;;;4.53;1.93;;;7.00;99.90;;;;;;5074557;28;20201;-52
2024/01/23 00:39:29;;;;;;;5.07;2.27;;;7.00;99.90;;;;;;5071999;28;20255;-53
2024/01/23 00:41:54;;;;;;;6.70;2.13;;;6.90;99.90;;;;;;5077795;28;20306;-52
2024/01/23 00:44:20;;;;;;;5.73;1.80;;;6.80;99.90;;;;;;5055824;28;20203;-52
2024/01/23 00:46:45;;;;;;;3.80;2.27;;;6.70;99.90;;;;;;5078530;28;20916;-52
2024/01/23 00:49:11;;;;;;;5.27;2.10;;;6.60;99.90;;;;;;5070997;28;20761;-53
2024/01/23 00:51:36;;;;;;;11.63;2.50;;;6.40;99.90;;;;;;5067688;28;20667;-54
2024/01/23 00:54:02;;;;;;;13.90;2.83;;;6.40;99.90;;;;;;5074153;28;20710;-53
2024/01/23 00:56:28;;;;;;;6.40;2.47;;;6.30;99.90;;;;;;5072340;28;20193;-52
2024/01/23 00:58:53;;;;;;;7.80;2.37;;;6.40;99.90;;;;;;5052833;28;20201;-52
2024/01/23 01:01:19;;;;;;;3.00;2.07;;;6.40;99.90;;;;;;5072209;28;20537;-53
2024/01/23 01:03:44;;;;;;;4.67;1.83;;;6.30;99.90;;;;;;5072154;28;20197;-53
2024/01/23 01:06:10;;;;;;;6.63;2.00;;;6.30;99.90;;;;;;5082395;28;20610;-52
2024/01/23 01:08:35;;;;;;;7.17;2.10;;;6.30;99.90;;;;;;5077865;28;20227;-52
2024/01/23 01:11:01;;;;;;;5.63;2.80;;;6.20;99.90;;;;;;5076269;28;20325;-52
2024/01/23 01:13:26;;;;;;;9.63;2.47;;;6.10;99.90;;;;;;5077872;28;20223;-53
2024/01/23 01:15:52;;;;;;;4.00;1.90;;;6.00;99.90;;;;;;5074082;28;20602;-52
2024/01/23 01:18:17;;;;;;;5.30;3.07;;;6.20;99.90;;;;;;5076387;28;20236;-52
2024/01/23 01:20:44;;;;;;;7.30;1.97;;;6.10;99.90;;;;;;5079677;28;20216;-53
2024/01/23 01:23:09;;;;;;;3.17;1.80;;;6.00;99.90;;;;;;5076471;28;20197;-52
2024/01/23 01:25:35;;;;;;;3.13;1.70;;;6.00;99.90;;;;;;5074842;28;20197;-53
2024/01/23 01:28:01;;;;;;;4.07;1.87;;;5.90;99.90;;;;;;5072904;28;20245;-53
2024/01/23 01:30:28;;;;;;;3.90;1.47;;;6.00;99.90;;;;;;5071694;28;20189;-53
2024/01/23 01:32:54;;;;;;;6.87;1.80;;;6.10;99.90;;;;;;5061640;28;20222;-52
2024/01/23 01:35:19;;;;;;;2.03;1.70;;;6.20;99.90;;;;;;5079683;28;20776;-53
2024/01/23 01:37:45;;;;;;;6.47;1.70;;;6.20;99.90;;;;;;5078060;28;20213;-52
2024/01/23 01:40:11;;;;;;;3.53;1.17;;;6.20;99.90;;;;;;5079625;28;20272;-52
2024/01/23 01:42:37;;;;;;;6.47;2.57;;;6.20;99.90;;;;;;5075747;28;20201;-52
2024/01/23 01:45:03;;;;;;;4.67;2.00;;;6.20;99.90;;;;;;5079055;28;20616;-53
2024/01/23 01:47:29;;;;;;;7.23;2.10;;;6.10;99.90;;;;;;5062017;28;20192;-53
2024/01/23 01:49:54;;;;;;;8.50;2.07;;;6.10;99.90;;;;;;5070558;28;20566;-53
2024/01/23 01:52:20;;;;;;;4.50;1.63;;;6.00;99.90;;;;;;5062818;28;20632;-53
2024/01/23 01:54:47;;;;;;;7.27;1.60;;;6.00;99.90;;;;;;5071351;22;21084;-52
2024/01/23 01:57:13;;;;;;;6.50;1.60;;;6.00;99.90;;;;;;5057369;28;20207;-52
2024/01/23 01:59:39;;;;;;;1.50;1.10;;;5.90;99.90;;;;;;5070886;28;20193;-52
2024/01/23 02:02:07;;;;;;;4.20;1.60;;;5.90;99.90;;;;;;5061637;28;20251;-52
2024/01/23 02:04:32;;;;;;;8.27;1.93;;;5.80;99.90;;;;;;5052350;28;20228;-52
2024/01/23 02:06:58;;;;;;;7.70;1.97;;;5.90;99.90;;;;;;5064327;28;20565;-52
2024/01/23 02:09:23;;;;;;;6.50;2.20;;;5.90;99.90;;;;;;5065346;28;20263;-52
2024/01/23 02:12:00;;;;;;;3.23;1.60;;;6.10;99.90;;;;;;5059981;28;20570;-52
2024/01/23 02:14:26;;;;;;;4.40;1.60;;;6.20;99.90;;;;;;5066058;28;20473;-52
2024/01/23 02:16:53;;;;;;;9.07;2.73;;;6.20;99.90;;;;;;5065825;28;20543;-60
2024/01/23 02:19:18;;;;;;;6.33;2.07;;;6.10;99.90;;;;;;5060695;28;20201;-57
2024/01/23 02:21:44;;;;;;;3.80;1.80;;;6.10;99.90;;;;;;5065178;28;20232;-54
2024/01/23 02:24:09;;;;;;;2.70;1.50;;;6.20;99.90;;;;;;5053900;28;20210;-53
2024/01/23 02:26:35;;;;;;;7.47;1.53;;;6.10;99.90;;;;;;5057530;28;20273;-56
2024/01/23 02:29:00;;;;;;;3.30;1.67;;;6.10;99.90;;;;;;5053731;28;20220;-52
2024/01/23 02:31:26;;;;;;;8.47;1.93;;;6.10;99.90;;;;;;5062831;28;20277;-54
2024/01/23 02:33:51;;;;;;;4.50;1.93;;;6.00;99.90;;;;;;5047634;28;20689;-53
2024/01/23 02:36:17;;;;;;;2.63;1.83;;;6.00;99.90;;;;;;5056182;28;20197;-53
2024/01/23 02:38:42;;;;;;;3.93;1.83;;;6.00;99.90;;;;;;5073947;28;20194;-55
2024/01/23 02:41:08;;;;;;;3.80;2.10;;;6.00;99.90;;;;;;5069539;28;20206;-52
2024/01/23 02:43:34;;;;;;;3.80;1.83;;;6.00;99.90;;;;;;5066299;28;20205;-53
2024/01/23 02:45:59;;;;;;;9.03;1.93;;;6.00;99.90;;;;;;5068685;28;20298;-53
2024/01/23 02:48:25;;;;;;;6.03;1.97;;;5.90;99.90;;;;;;5055609;28;20760;-54
2024/01/23 02:50:50;;;;;;;4.60;1.97;;;5.90;99.90;;;;;;5064664;28;20633;-52
2024/01/23 02:53:15;;;;;;;3.57;1.90;;;5.90;99.90;;;;;;5046280;28;20676;-56
2024/01/23 02:55:41;;;;;;;3.07;1.50;;;5.90;99.90;;;;;;5032754;28;20478;-53
2024/01/23 02:58:08;;;;;;;10.03;1.63;;;5.90;99.90;;;;;;5050926;28;20244;-55
2024/01/23 03:00:35;;;;;;;7.70;2.47;;;5.90;99.90;;;;;;5052229;28;20264;-56
2024/01/23 03:03:03;;;;;;;7.17;2.20;;;6.00;99.90;;;;;;5047012;28;20646;-53
2024/01/23 03:05:28;;;;;;;8.13;2.60;;;5.90;99.90;;;;;;5031901;28;20206;-53
2024/01/23 03:07:54;;;;;;;6.13;2.50;;;6.00;99.90;;;;;;5049405;28;20198;-53
2024/01/23 03:10:19;;;;;;;4.43;2.07;;;6.00;99.90;;;;;;5047650;28;20244;-53
2024/01/23 03:12:46;;;;;;;5.27;1.47;;;5.90;99.90;;;;;;5046451;28;20237;-60
2024/01/23 03:15:11;;;;;;;2.63;1.57;;;5.90;99.90;;;;;;5025190;28;20206;-54
2024/01/23 03:17:37;;;;;;;3.83;1.67;;;6.10;99.90;;;;;;5037974;28;20221;-56
2024/01/23 03:20:03;;;;;;;2.20;1.20;;;6.10;99.90;;;;;;5054813;28;20787;-53
2024/01/23 03:22:28;;;;;;;3.97;1.50;;;6.10;99.90;;;;;;5050174;28;20332;-53
2024/01/23 03:24:54;;;;;;;5.20;1.63;;;6.00;99.90;;;;;;5052662;28;20214;-55
2024/01/23 03:27:19;;;;;;;3.10;1.67;;;6.00;99.90;;;;;;5031664;28;20201;-52
2024/01/23 03:29:45;;;;;;;8.20;2.47;;;6.10;99.90;;;;;;5050578;28;20233;-55
2024/01/23 03:32:11;;;;;;;8.07;1.80;;;6.10;99.90;;;;;;5034894;28;20639;-52
2024/01/23 03:34:38;;;;;;;3.20;1.80;;;6.00;99.90;;;;;;5054717;28;21033;-52
2024/01/23 03:37:04;;;;;;;4.50;1.50;;;6.00;99.90;;;;;;5051634;28;20202;-52
2024/01/23 03:39:30;;;;;;;4.40;1.60;;;5.90;99.90;;;;;;5032179;28;20201;-54
2024/01/23 03:41:56;;;;;;;5.40;1.50;;;6.00;99.90;;;;;;5034317;28;20202;-53
2024/01/23 03:44:24;;;;;;;9.93;2.07;;;5.90;99.90;;;;;;5049729;28;20462;-58
2024/01/23 03:46:50;;;;;;;5.23;1.63;;;5.80;99.90;;;;;;5048366;28;20290;-60
2024/01/23 03:49:16;;;;;;;8.30;1.93;;;5.90;99.90;;;;;;5048178;28;20301;-61
2024/01/23 03:51:41;;;;;;;4.73;1.53;;;5.80;99.90;;;;;;5049197;28;20305;-60
2024/01/23 03:54:07;;;;;;;4.87;2.30;;;5.80;99.90;;;;;;5050370;28;20233;-60
2024/01/23 03:56:32;;;;;;;3.33;2.03;;;5.90;99.90;;;;;;5071116;28;20198;-56
2024/01/23 03:58:58;;;;;;;3.93;1.57;;;6.20;99.90;;;;;;5069976;28;20207;-58
2024/01/23 04:01:23;;;;;;;4.87;2.07;;;6.50;99.90;;;;;;5051850;28;20248;-53
2024/01/23 04:03:49;;;;;;;6.43;1.87;;;6.50;99.90;;;;;;5054548;28;21070;-53
2024/01/23 04:06:14;;;;;;;4.10;1.33;;;6.50;99.90;;;;;;5076450;28;20194;-53
2024/01/23 04:08:40;;;;;;;7.60;2.00;;;6.20;99.90;;;;;;5073310;28;20209;-52
2024/01/23 04:11:05;;;;;;;3.03;1.43;;;6.20;99.90;;;;;;5072367;28;20701;-52
2024/01/23 04:13:31;;;;;;;6.53;2.53;;;6.30;99.90;;;;;;5072970;28;20197;-52
2024/01/23 04:15:56;;;;;;;3.30;1.30;;;6.40;99.90;;;;;;5068772;28;20213;-52
2024/01/23 04:18:22;;;;;;;2.27;1.20;;;6.40;99.90;;;;;;5074416;28;20254;-54
2024/01/23 04:20:48;;;;;;;4.43;1.30;;;6.30;99.90;;;;;;5074607;28;20193;-52
2024/01/23 04:23:13;;;;;;;3.60;2.53;;;6.30;99.90;;;;;;5070578;28;20208;-52
2024/01/23 04:25:39;;;;;;;2.87;1.33;;;6.30;99.90;;;;;;5072985;28;20202;-58
2024/01/23 04:28:04;;;;;;;5.13;1.70;;;6.10;99.90;;;;;;5053956;28;20289;-53
2024/01/23 04:30:30;;;;;;;6.20;2.00;;;6.00;99.90;;;;;;5071487;28;20210;-52
2024/01/23 04:32:55;;;;;;;3.57;1.80;;;6.00;99.90;;;;;;5074962;28;20239;-52
2024/01/23 04:35:22;;;;;;;6.93;1.33;;;6.00;99.90;;;;;;5052399;28;20193;-52
2024/01/23 04:37:47;;;;;;;4.80;2.10;;;5.60;99.90;;;;;;5071164;28;20236;-51
2024/01/23 04:40:13;;;;;;;8.03;2.57;;;5.60;99.90;;;;;;5073143;28;20286;-54
2024/01/23 04:42:39;;;;;;;5.43;1.47;;;5.70;99.90;;;;;;5080311;28;20207;-51
2024/01/23 04:45:05;;;;;;;5.60;1.87;;;5.50;99.90;;;;;;5078896;28;20173;-52
2024/01/23 04:47:30;;;;;;;9.47;1.60;;;5.60;99.90;;;;;;5081600;28;20201;-53
2024/01/23 04:49:56;;;;;;;5.90;1.67;;;5.70;99.90;;;;;;5075688;28;20206;-52
2024/01/23 04:52:21;;;;;;;7.00;1.90;;;5.60;99.90;;;;;;5064969;28;20193;-51
2024/01/23 04:54:47;;;;;;;5.07;1.63;;;5.60;99.90;;;;;;5071201;28;20727;-52
2024/01/23 04:57:17;;;;;;;3.93;1.77;;;5.50;99.90;;;;;;5085021;28;20201;-56
2024/01/23 04:59:42;;;;;;;3.67;1.57;;;5.70;99.90;;;;;;5082029;28;20957;-52
2024/01/23 05:02:08;;;;;;;4.30;1.47;;;5.70;99.90;;;;;;5084084;28;20291;-53
2024/01/23 05:04:33;;;;;;;6.93;1.63;;;5.70;99.90;;;;;;5063643;28;20174;-54
2024/01/23 05:06:59;;;;;;;2.40;1.50;;;5.80;99.90;;;;;;5080960;28;20525;-51
2024/01/23 05:09:25;;;;;;;2.63;1.40;;;5.80;99.90;;;;;;5082574;28;20221;-52
2024/01/23 05:11:50;;;;;;;9.33;1.70;;;5.70;99.90;;;;;;5070073;28;20229;-52
2024/01/23 05:14:17;;;;;;;7.20;1.63;;;5.70;99.90;;;;;;5063049;28;20313;-53
2024/01/23 05:16:43;;;;;;;5.43;1.57;;;5.80;99.90;;;;;;5091541;28;20200;-53
2024/01/23 05:19:09;;;;;;;3.03;1.60;;;5.70;99.90;;;;;;5081751;28;20189;-53
2024/01/23 05:21:34;;;;;;;6.13;1.83;;;5.70;99.90;;;;;;5083222;28;20197;-53
2024/01/23 05:24:02;;;;;;;3.93;1.83;;;5.60;99.90;;;;;;5075745;28;20528;-53
2024/01/23 05:26:27;;;;;;;8.37;2.50;;;5.60;99.90;;;;;;5069688;28;20193;-53
2024/01/23 05:28:53;;;;;;;7.20;1.57;;;5.60;99.90;;;;;;5071964;28;20217;-53
2024/01/23 05:31:18;;;;;;;5.27;1.60;;;5.50;99.90;;;;;;5090080;28;21023;-53
2024/01/23 05:33:44;;;;;;;7.80;1.80;;;5.60;99.90;;;;;;5082358;28;20186;-53
2024/01/23 05:36:09;;;;;;;3.70;1.33;;;5.50;99.90;;;;;;5078965;28;20238;-52
2024/01/23 05:38:35;;;;;;;2.77;1.50;;;5.30;99.90;;;;;;5079499;28;20251;-53
2024/01/23 05:41:01;;;;;;;1.87;1.27;;;5.30;99.90;;;;;;5085020;28;20211;-53
2024/01/23 05:43:26;;;;;;;2.70;1.50;;;5.20;99.90;;;;;;5074530;28;20273;-53
2024/01/23 05:45:53;;;;;;;4.00;1.37;;;5.10;99.90;;;;;;5082773;28;20342;-53
2024/01/23 05:48:19;;;;;;;6.23;2.07;;;5.20;99.90;;;;;;5084524;28;20205;-53
2024/01/23 05:50:44;;;;;;;6.20;2.00;;;5.20;99.90;;;;;;5084147;28;20825;-52
2024/01/23 05:53:10;;;;;;;5.30;2.07;;;5.00;99.90;;;;;;5079997;28;20202;-53
2024/01/23 05:55:35;;;;;;;7.53;1.50;;;5.10;99.90;;;;;;5073911;28;20232;-53
2024/01/23 05:58:01;;;;;;;6.37;1.63;;;5.20;99.90;;;;;;5078439;28;20776;-52
2024/01/23 06:00:26;;;;;;;3.47;1.47;;;5.20;99.90;;;;;;5075349;28;20272;-52
2024/01/23 06:02:52;;;;;;;2.83;1.47;;;5.10;99.90;;;;;;5078502;28;20837;-52
2024/01/23 06:05:19;;;;;;;5.53;2.03;;;5.00;99.90;;;;;;5079957;28;20197;-56
2024/01/23 06:07:49;;;;;;;4.67;1.77;;;5.10;99.90;;;;;;5075363;28;20200;-52
2024/01/23 06:10:16;;;;;;;6.73;2.03;;;5.20;99.90;;;;;;5082522;28;20213;-52
2024/01/23 06:12:41;;;;;;;4.67;1.77;;;5.20;99.90;;;;;;5084825;28;20204;-52
2024/01/23 06:15:08;;;;;;;8.40;2.37;;;5.20;99.90;;;;;;5089653;28;20686;-52
2024/01/23 06:17:33;;;;;;;8.07;2.10;;;5.20;99.90;;;;;;5073906;28;20248;-53
2024/01/23 06:20:01;;;;;;;6.70;2.00;;;5.40;99.90;;;;;;5093909;28;20252;-52
2024/01/23 06:22:27;;;;;;;4.30;1.80;;;5.40;99.90;;;;;;5063368;28;20198;-52
2024/01/23 06:25:06;;;;;;;6.40;2.03;;;5.50;99.90;;;;;;5090985;28;20288;-52
2024/01/23 06:27:32;;;;;;;1.77;1.10;;;5.70;99.90;;;;;;5081395;28;20339;-55
2024/01/23 06:29:58;;;;;;;4.03;1.70;;;5.60;99.90;;;;;;5086852;28;20250;-53
2024/01/23 06:32:24;;;;;;;10.03;2.37;;;5.60;99.90;;;;;;5057830;28;20281;-53
2024/01/23 06:34:53;;;;;;;6.13;1.73;;;5.60;99.90;;;;;;5080948;28;20246;-53
2024/01/23 06:37:19;;;;;;;8.60;2.47;;;5.70;99.90;;;;;;5082260;28;20212;-52
2024/01/23 06:39:45;;;;;;;6.97;1.93;;;5.70;99.90;;;;;;5088999;28;20221;-53
2024/01/23 06:42:11;;;;;;;10.23;1.90;;;5.80;99.90;;;;;;5064118;28;20309;-53
2024/01/23 06:44:37;;;;;;;7.50;2.73;;;5.70;99.90;;;;;;5084757;28;20523;-51
2024/01/23 06:47:03;;;;;;;7.10;1.40;;;5.70;99.90;;;;;;5090497;28;20190;-53
2024/01/23 06:49:29;;;;;;;10.13;3.17;;;5.70;99.90;;;;;;5081165;28;20839;-52
2024/01/23 06:51:55;;;;;;;5.57;1.87;;;5.70;99.90;;;;;;5064394;28;20205;-52
2024/01/23 06:54:20;;;;;;;10.07;1.97;;;5.70;99.90;;;;;;5088630;28;20320;-53
2024/01/23 06:56:46;;;;;;;9.43;1.87;;;5.80;99.90;;;;;;5088299;28;21133;-52
2024/01/23 06:59:12;;;;;;;6.07;1.93;;;5.80;99.90;;;;;;5076719;28;20190;-52
2024/01/23 07:01:38;;;;;;;8.20;1.93;;;5.80;99.90;;;;;;5079721;28;20364;-53
2024/01/23 07:04:04;;;;;;;14.33;2.50;;;5.80;99.90;;;;;;5078345;28;20691;-52
2024/01/23 07:06:30;;;;;;;15.43;2.73;;;5.90;99.90;;;;;;5083428;28;20198;-52
2024/01/23 07:08:55;;;;;;;7.43;2.07;;;5.90;99.90;;;;;;5067805;28;20260;-52
2024/01/23 07:11:21;;;;;;;11.77;2.33;;;6.00;99.90;;;;;;5083874;28;20574;-52
2024/01/23 07:13:46;;;;;;;8.73;3.93;;;5.90;99.90;;;;;;5085225;28;20812;-52
2024/01/23 07:16:12;;;;;;;9.03;3.07;;;6.00;99.90;;;;;;5081490;28;20284;-53
2024/01/23 07:18:37;;;;;;;5.00;1.80;;;6.00;99.90;;;;;;5062914;28;20469;-56
2024/01/23 07:21:03;;;;;;;8.87;3.03;;;6.20;99.90;;;;;;5073591;28;20198;-53
2024/01/23 07:23:29;;;;;;;9.43;2.37;;;6.20;99.90;;;;;;5089977;28;20217;-56
2024/01/23 07:25:54;;;;;;;7.40;2.00;;;6.20;99.90;;;;;;5074431;28;20281;-53
2024/01/23 07:28:21;;;;;;;8.57;2.40;;;6.10;99.90;;;;;;5078759;28;20780;-54
2024/01/23 07:30:47;;;;;;;8.40;2.80;;;6.40;99.90;;;;;;5082329;28;20235;-54
2024/01/23 07:33:12;;;;;;;8.60;2.47;;;6.70;99.90;;;;;;5094894;28;20758;-54
2024/01/23 07:35:38;;;;;;;3.87;2.07;;;6.70;99.90;;;;;;5077976;28;20174;-54
2024/01/23 07:38:03;;;;;;;8.10;4.33;;;6.70;99.90;;;;;;5093236;28;20287;-54
2024/01/23 07:40:29;;;;;;;11.60;2.17;;;6.60;99.90;;;;;;5087448;28;20181;-54
2024/01/23 07:42:55;;;;;;;14.60;2.73;;;6.60;99.90;;;;;;5081086;28;20597;-53
2024/01/23 07:45:20;;;;;;;12.03;2.20;;;6.60;99.90;;;;;;5077419;28;20281;-53
2024/01/23 07:47:46;;;;;;;10.20;2.33;;;6.60;99.90;;;;;;5086032;28;20209;-61
2024/01/23 07:50:12;;;;;;;13.00;2.13;;;6.70;99.90;;;;;;5077671;28;20216;-54
2024/01/23 07:52:37;;;;;;;7.67;2.40;;;6.70;99.90;;;;;;5079552;28;20213;-52
2024/01/23 07:55:03;;;;;;;8.60;3.07;;;6.60;99.90;;;;;;5070662;28;20711;-52
2024/01/23 07:57:29;;;;;;;7.50;1.77;;;6.40;99.90;;;;;;5077287;28;20189;-53
2024/01/23 07:59:54;;;;;;;11.17;2.97;;;6.40;99.90;;;;;;5101494;22;20299;-53
2024/01/23 08:02:20;;;;;;;12.70;3.03;;;6.40;99.90;;;;;;5106622;23;20234;-52
2024/01/23 08:04:45;;;;;;;12.03;3.23;;;6.40;99.90;;;;;;5099448;28;20196;-53
2024/01/23 08:07:11;;;;;;;7.50;2.10;;;6.40;99.90;;;;;;5099175;28;20295;-52
2024/01/23 08:09:36;;;;;;;5.57;2.03;;;6.30;99.90;;;;;;5090751;28;20569;-53
2024/01/23 08:12:02;;;;;;;15.60;2.67;;;6.40;99.90;;;;;;5096798;28;20670;-52
2024/01/23 08:14:27;;;;;;;6.20;2.20;;;6.40;99.90;;;;;;5093418;28;20323;-53
2024/01/23 08:16:53;;;;;;;14.27;3.20;;;6.40;99.90;;;;;;5100382;28;20572;-53
2024/01/23 08:19:19;;;;;;;6.67;2.67;;;6.50;99.90;;;;;;5101779;28;20284;-53
2024/01/23 08:21:45;;;;;;;8.40;2.63;;;6.50;99.90;;;;;;5101318;28;20575;-54
2024/01/23 08:24:11;;;;;;;8.27;2.27;;;6.40;99.90;;;;;;5103485;28;20729;-54
2024/01/23 08:26:37;;;;;;;13.50;3.13;;;6.40;99.90;;;;;;5100819;28;20250;-54
2024/01/23 08:29:02;;;;;;;9.07;3.20;;;6.40;99.90;;;;;;5102913;28;20217;-53
2024/01/23 08:31:29;;;;;;;11.47;2.23;;;6.40;99.90;;;;;;5105922;27;20768;-53
2024/01/23 08:33:54;;;;;;;13.40;2.70;;;6.60;99.90;;;;;;5109231;27;20235;-53
2024/01/23 08:36:20;;;;;;;9.50;2.93;;;6.60;99.90;;;;;;5084368;28;20224;-52
2024/01/23 08:38:45;;;;;;;10.13;2.77;;;6.70;99.90;;;;;;5102594;28;20572;-53
2024/01/23 08:41:11;;;;;;;7.60;2.80;;;6.70;99.90;;;;;;5098592;28;20270;-53
2024/01/23 08:43:36;;;;;;;8.63;2.67;;;6.80;99.90;;;;;;5103245;28;20189;-53
2024/01/23 08:46:03;;;;;;;6.63;1.97;;;6.80;99.90;;;;;;5102500;28;20201;-53
2024/01/23 08:48:29;;;;;;;12.57;3.37;;;6.80;99.90;;;;;;5102456;28;20936;-52
2024/01/23 08:50:54;;;;;;;9.90;4.07;;;6.80;99.90;;;;;;5082457;28;20204;-53
2024/01/23 08:53:20;;;;;;;9.07;2.23;;;6.70;99.90;;;;;;5113903;27;20288;-53
2024/01/23 08:55:46;;;;;;;7.77;2.57;;;6.80;99.90;;;;;;5102694;27;20200;-53
2024/01/23 08:58:16;;;;;;;9.87;2.40;;;6.80;99.90;;;;;;5102902;28;20248;-53
2024/01/23 09:00:41;;;;;;;9.93;3.73;;;6.50;99.90;;;;;;5112797;27;20223;-52
2024/01/23 09:03:07;;;;;;;7.00;2.00;;;6.60;99.90;;;;;;5112163;27;20203;-54
2024/01/23 09:05:32;;;;;;;9.07;2.43;;;6.80;99.90;;;;;;5106176;27;20222;-55
2024/01/23 09:07:58;;;;;;;8.17;2.20;;;6.80;99.90;;;;;;5123918;27;20255;-54
2024/01/23 09:10:23;;;;;;;13.63;3.10;;;6.70;99.90;;;;;;5115337;27;20773;-53
2024/01/23 09:12:48;;;;;;;16.37;2.60;;;6.70;99.90;;;;;;5103930;27;20222;-52
2024/01/23 09:15:14;;;;;;;8.60;2.27;;;6.90;99.90;;;;;;5103079;27;20201;-52
2024/01/23 09:17:40;;;;;;;13.17;2.73;;;6.90;99.90;;;;;;5115585;27;20227;-53
2024/01/23 09:20:06;;;;;;;9.00;2.47;;;6.90;99.90;;;;;;5116728;27;20220;-53
2024/01/23 09:22:31;;;;;;;11.80;2.80;;;6.80;99.90;;;;;;5084257;28;20247;-53
2024/01/23 09:24:59;;;;;;;7.17;2.10;;;6.90;99.90;;;;;;5119728;27;20630;-53
2024/01/23 09:27:25;;;;;;;10.33;3.23;;;6.90;99.90;;;;;;5090450;27;20267;-53
2024/01/23 09:29:50;;;;;;;11.93;2.87;;;6.80;99.90;;;;;;5093790;28;20222;-53
2024/01/23 09:32:16;;;;;;;10.70;3.20;;;6.90;99.90;;;;;;5102312;27;20525;-53
2024/01/23 09:34:41;;;;;;;10.87;3.13;;;7.00;99.90;;;;;;5108032;28;20193;-60
2024/01/23 09:37:07;;;;;;;6.70;2.23;;;7.10;99.90;;;;;;5087577;28;20186;-53
2024/01/23 09:39:32;;;;;;;10.00;2.27;;;7.00;99.90;;;;;;5086891;28;20201;-53
2024/01/23 09:42:02;;;;;;;15.27;3.10;;;7.00;99.90;;;;;;5087505;28;20205;-54
2024/01/23 09:44:27;;;;;;;12.80;2.93;;;6.90;99.90;;;;;;5092071;28;20180;-60
2024/01/23 09:46:55;;;;;;;7.27;2.60;;;6.90;99.90;;;;;;5071568;28;20200;-55
2024/01/23 09:49:21;;;;;;;9.67;2.33;;;7.10;99.90;;;;;;5088014;28;20208;-53
2024/01/23 09:51:49;;;;;;;10.67;3.17;;;7.10;99.90;;;;;;5068850;28;20197;-53
2024/01/23 09:54:14;;;;;;;12.40;3.83;;;7.00;99.90;;;;;;5092128;28;20205;-52
2024/01/23 09:56:40;;;;;;;15.73;3.17;;;7.00;99.90;;;;;;5089840;28;21058;-52
2024/01/23 09:59:07;;;;;;;5.93;1.97;;;7.20;99.90;;;;;;5097128;28;21150;-52
2024/01/23 10:01:35;;;;;;;11.67;2.97;;;7.20;99.90;;;;;;5102014;28;20326;-54
2024/01/23 10:04:05;;;;;;;5.47;2.77;;;7.20;99.90;;;;;;5099025;28;20196;-57
2024/01/23 10:06:32;;;;;;;7.00;2.70;;;7.10;99.90;;;;;;5088692;28;20201;-57
2024/01/23 10:08:57;;;;;;;16.90;4.07;;;7.20;99.90;;;;;;5089867;28;20298;-56
2024/01/23 10:11:23;;;;;;;14.07;3.20;;;7.20;99.90;;;;;;5091525;28;20678;-63
2024/01/23 10:13:48;;;;;;;8.77;2.70;;;7.20;99.90;;;;;;5095182;28;20299;-54
2024/01/23 10:16:17;;;;;;;9.40;3.53;;;7.20;99.90;;;;;;5085427;28;20201;-53
2024/01/23 10:18:46;;;;;;;12.13;3.33;;;7.20;99.90;;;;;;5094834;28;20255;-53
2024/01/23 10:21:11;;;;;;;11.33;2.50;;;7.20;99.90;;;;;;5067227;28;20638;-52
2024/01/23 10:23:38;;;;;;;13.60;3.43;;;7.20;99.90;;;;;;5088363;28;20229;-53
2024/01/23 10:26:07;;;;;;;10.53;2.80;;;7.50;99.90;;;;;;5084683;28;20208;-52
2024/01/23 10:28:32;;;;;;;12.43;3.43;;;7.30;99.90;;;;;;5100380;28;20249;-53
2024/01/23 10:31:00;;;;;;;15.17;3.77;;;7.20;99.90;;;;;;5092705;28;20204;-53
2024/01/23 10:33:26;;;;;;;3.77;2.23;;;7.30;99.90;;;;;;5073667;28;20251;-53
2024/01/23 10:35:53;;;;;;;14.77;4.00;;;7.30;99.90;;;;;;5094040;28;20730;-54
2024/01/23 10:38:19;;;;;;;12.90;3.57;;;7.30;99.90;;;;;;5090193;28;20204;-54
2024/01/23 10:40:47;;;;;;;10.60;3.03;;;7.30;99.90;;;;;;5068334;28;20192;-53
2024/01/23 10:43:12;;;;;;;7.73;3.23;;;7.30;99.90;;;;;;5087586;28;20310;-53
2024/01/23 10:45:39;;;;;;;7.20;2.70;;;7.30;99.90;;;;;;5068149;28;20332;-52
2024/01/23 10:48:07;;;;;;;9.63;2.77;;;7.30;99.90;;;;;;5085694;28;20267;-52
2024/01/23 10:50:34;;;;;;;14.97;4.00;;;7.30;99.90;;;;;;5086602;28;20212;-54
2024/01/23 10:53:05;;;;;;;13.10;3.73;;;7.30;99.90;;;;;;5087773;28;20197;-57
2024/01/23 10:55:37;;;;;;;10.87;3.03;;;7.30;99.90;;;;;;5083622;27;20196;-52
2024/01/23 10:58:05;;;;;;;10.67;2.83;;;7.40;99.90;;;;;;5094938;27;20193;-59
2024/01/23 11:00:33;;;;;;;19.47;3.27;;;7.40;99.90;;;;;;5107477;27;20245;-56
2024/01/23 11:02:59;;;;;;;14.47;3.30;;;7.50;99.90;;;;;;5092239;27;20530;-56
2024/01/23 11:05:30;;;;;;;9.70;3.47;;;7.40;99.90;;;;;;5098528;27;20220;-55
2024/01/23 11:08:01;;;;;;;12.27;3.17;;;7.30;99.90;;;;;;5089693;27;20280;-53
2024/01/23 11:10:52;;;;;;;10.47;3.50;;;7.30;99.90;;;;;;5094945;27;20216;-53
2024/01/23 11:13:35;;;;;;;13.80;3.20;;;7.40;99.90;;;;;;5100861;27;20197;-53
2024/01/23 11:16:08;;;;;;;15.87;3.60;;;7.30;99.90;;;;;;5094839;27;20271;-54
2024/01/23 11:18:34;;;;;;;13.47;3.03;;;7.30;99.90;;;;;;5088281;27;20196;-55
2024/01/23 11:21:08;;;;;;;13.67;3.47;;;7.20;99.90;;;;;;5098056;27;20660;-53
2024/01/23 11:23:36;;;;;;;11.33;3.30;;;7.10;99.90;;;;;;5072425;28;20203;-51
2024/01/23 11:26:04;;;;;;;17.23;4.57;;;7.20;99.90;;;;;;5094871;27;20767;-53
2024/01/23 11:28:33;;;;;;;12.70;2.60;;;7.40;99.90;;;;;;5098348;27;20223;-61
2024/01/23 11:31:11;;;;;;;13.17;3.33;;;7.80;99.90;;;;;;5101730;27;20254;-56
2024/01/23 11:33:37;;;;;;;13.47;3.50;;;8.10;99.90;;;;;;5099653;27;20228;-54
2024/01/23 11:36:12;;;;;;;13.00;2.93;;;7.80;99.90;;;;;;5096929;27;20235;-53
2024/01/23 11:38:45;;;;;;;10.23;3.10;;;7.60;99.90;;;;;;5083841;27;20197;-54
2024/01/23 11:41:22;;;;;;;11.53;2.80;;;7.70;99.90;;;;;;5091220;27;20199;-53
2024/01/23 11:43:54;;;;;;;8.53;3.83;;;7.80;99.90;;;;;;5087532;27;20207;-53
2024/01/23 11:46:24;;;;;;;11.43;3.37;;;7.90;99.90;;;;;;5099182;27;20189;-53
2024/01/23 11:48:52;;;;;;;6.93;2.63;;;7.90;99.90;;;;;;5090320;27;20244;-53
2024/01/23 11:51:18;;;;;;;11.30;3.23;;;8.00;99.90;;;;;;5093133;27;20284;-53
2024/01/23 11:53:44;;;;;;;13.20;3.73;;;7.90;99.90;;;;;;5074107;27;20307;-53
2024/01/23 11:56:11;;;;;;;14.77;3.87;;;7.90;99.90;;;;;;5073550;27;20224;-53
2024/01/23 11:58:38;;;;;;;15.53;3.73;;;7.90;99.90;;;;;;5086706;27;20201;-53
2024/01/23 12:01:04;;;;;;;10.40;2.77;;;7.90;99.90;;;;;;5089472;27;20831;-53
2024/01/23 12:03:30;;;;;;;15.73;3.43;;;7.90;99.90;;;;;;5089390;27;20203;-53
2024/01/23 12:05:56;;;;;;;10.10;3.97;;;7.90;99.90;;;;;;5094094;27;20209;-52
2024/01/23 12:08:25;;;;;;;12.60;3.67;;;7.90;99.90;;;;;;5087116;27;20196;-52
2024/01/23 12:10:51;;;;;;;17.67;3.90;;;7.90;99.90;;;;;;5100456;27;20197;-56
2024/01/23 12:13:17;;;;;;;9.60;3.90;;;8.20;99.90;;;;;;5079796;28;20207;-54
2024/01/23 12:15:43;;;;;;;17.00;3.90;;;8.10;99.90;;;;;;5094435;27;20200;-54
2024/01/23 12:18:13;;;;;;;11.90;3.60;;;8.40;99.90;;;;;;5067829;28;20353;-55
2024/01/23 12:20:42;;;;;;;16.37;3.60;;;8.20;99.90;;;;;;5091639;27;20339;-56
2024/01/23 12:23:08;;;;;;;12.43;3.17;;;8.30;99.90;;;;;;5092391;27;20232;-54
2024/01/23 12:25:33;;;;;;;12.00;2.97;;;8.30;99.90;;;;;;5097758;27;20591;-58
2024/01/23 12:27:59;;;;;;;12.43;3.27;;;8.20;99.90;;;;;;5109072;27;20219;-53
2024/01/23 12:30:25;;;;;;;9.37;4.63;;;8.20;99.90;;;;;;5085918;28;20307;-61
2024/01/23 12:32:50;;;;;;;11.47;4.37;;;8.10;99.90;;;;;;5094649;27;20261;-57
2024/01/23 12:35:16;;;;;;;16.23;3.10;;;7.90;99.90;;;;;;5090714;27;20720;-53
2024/01/23 12:37:41;;;;;;;13.57;3.93;;;7.90;99.90;;;;;;5095267;27;20895;-54
2024/01/23 12:40:09;;;;;;;15.17;4.13;;;7.80;99.90;;;;;;5087074;27;20189;-52
2024/01/23 12:42:43;;;;;;;11.20;2.87;;;7.80;99.90;;;;;;5089432;27;20193;-53
2024/01/23 12:45:11;;;;;;;16.77;4.20;;;7.80;99.90;;;;;;5064514;28;20311;-55
2024/01/23 12:47:37;;;;;;;11.77;4.00;;;7.80;99.90;;;;;;5097325;27;20552;-53